Impacts TAF Board INFO
FOR SITUATIONAL AWARENESS. NOT TO BE USED FOR FLIGHT PLANNING PURPOSES.
IDs:

KPIT - Pittsburgh Intl, PA, US

Issued at 0932 UTC 23 May 2018
Updated at 1113 UTC 23 May 2018
Potential Impact None Slight Moderate High
Time<<24/12Z 24/13Z 24/14Z 24/15Z 24/16Z 24/17Z 24/18Z 24/19Z 24/20Z 24/21Z 24/22Z 24/23Z 25/00Z
Type
VIS
CIG
Cover
FltCat
WX
WDir
WSpd
WGst

Raw TAF
KPIT 230932Z 2310/2412 32005KT 3SM BR SCT008 BKN015
  TEMPO 2310/2314 BKN008
  FM231500 33005KT P6SM BKN015
  FM231700 34008KT P6SM SCT050


METAR Board
Radar Display
Forecast Discussion

FOR SITUATIONAL AWARENESS. NOT TO BE USED FOR FLIGHT PLANNING PURPOSES.